createdAt,value
2023-05-05T00:00:01.071Z,94802.00
2023-05-05T00:01:01.063Z,94802.00
2023-05-05T00:02:01.100Z,94800.00
2023-05-05T00:03:01.144Z,94799.00
2023-05-05T00:04:01.095Z,94797.00
2023-05-05T00:05:01.037Z,94797.00
2023-05-05T00:06:01.052Z,94797.00
2023-05-05T00:07:01.035Z,94797.00
2023-05-05T00:08:01.004Z,94797.00
2023-05-05T00:09:01.022Z,94797.00
2023-05-05T00:10:01.004Z,94795.00
2023-05-05T00:11:00.983Z,94797.00
2023-05-05T00:12:00.975Z,94795.00
2023-05-05T00:13:00.972Z,94797.00
2023-05-05T00:14:00.953Z,94797.00
2023-05-05T00:15:00.946Z,94797.00
2023-05-05T00:16:00.954Z,94797.00
2023-05-05T00:17:00.975Z,94799.00
2023-05-05T00:18:00.984Z,94799.00
2023-05-05T00:19:00.962Z,94799.00
2023-05-05T00:20:00.920Z,94799.00
2023-05-05T00:21:00.949Z,94799.00
2023-05-05T00:22:00.924Z,94799.00
2023-05-05T00:23:00.914Z,94800.00
2023-05-05T00:24:00.883Z,94800.00
2023-05-05T00:25:00.892Z,94802.00
2023-05-05T00:26:00.887Z,94799.00
2023-05-05T00:27:00.883Z,94800.00
2023-05-05T00:28:00.875Z,94799.00
2023-05-05T00:29:00.899Z,94799.00
2023-05-05T00:30:00.860Z,94799.00
2023-05-05T00:31:00.859Z,94800.00
2023-05-05T00:32:00.847Z,94800.00
2023-05-05T00:33:00.836Z,94800.00
2023-05-05T00:34:00.844Z,94797.00
2023-05-05T00:35:00.813Z,94802.00
2023-05-05T00:36:00.829Z,94802.00
2023-05-05T00:37:00.797Z,94802.00
2023-05-05T00:38:00.800Z,94806.00
2023-05-05T00:39:00.835Z,94806.00
2023-05-05T00:40:00.777Z,94806.00
2023-05-05T00:41:00.761Z,94806.00
2023-05-05T00:42:00.758Z,94812.00
2023-05-05T00:43:00.789Z,94810.00
2023-05-05T00:44:00.761Z,94810.00
2023-05-05T00:45:00.741Z,94810.00
2023-05-05T00:46:00.748Z,94810.00
2023-05-05T00:47:00.738Z,94804.00
2023-05-05T00:48:00.889Z,94810.00
2023-05-05T00:49:00.723Z,94808.00
2023-05-05T00:50:00.711Z,94806.00
2023-05-05T00:51:00.728Z,94806.00
2023-05-05T00:52:00.679Z,94804.00
2023-05-05T00:53:00.679Z,94802.00
2023-05-05T00:54:00.688Z,94802.00
2023-05-05T00:55:00.693Z,94802.00
2023-05-05T00:56:00.668Z,94804.00
2023-05-05T00:57:00.656Z,94800.00
2023-05-05T00:58:00.649Z,94800.00
2023-05-05T00:59:00.641Z,94797.00
2023-05-05T01:00:00.637Z,94797.00
2023-05-05T01:01:00.627Z,94797.00
2023-05-05T01:02:00.695Z,94799.00
2023-05-05T01:03:00.682Z,94799.00
2023-05-05T01:04:00.642Z,94799.00
2023-05-05T01:05:00.586Z,94797.00
2023-05-05T01:06:00.573Z,94797.00
2023-05-05T01:07:00.582Z,94795.00
2023-05-05T01:08:00.570Z,94799.00
2023-05-05T01:09:00.556Z,94799.00
2023-05-05T01:10:14.958Z,94799.00
2023-05-05T01:11:01.558Z,94799.00
2023-05-05T01:12:00.557Z,94795.00
2023-05-05T01:13:00.643Z,94795.00
2023-05-05T01:14:00.516Z,94797.00
2023-05-05T01:15:00.509Z,94795.00
2023-05-05T01:16:00.536Z,94795.00
2023-05-05T01:17:00.507Z,94799.00
2023-05-05T01:18:00.529Z,94793.00
2023-05-05T01:19:00.496Z,94799.00
2023-05-05T01:20:00.466Z,94797.00
2023-05-05T01:21:00.469Z,94799.00
2023-05-05T01:22:00.488Z,94800.00
2023-05-05T01:23:00.453Z,94802.00
2023-05-05T01:24:00.430Z,94802.00
2023-05-05T01:25:00.466Z,94800.00
2023-05-05T01:26:00.420Z,94800.00
2023-05-05T01:27:00.409Z,94802.00
2023-05-05T01:28:00.417Z,94802.00
2023-05-05T01:29:00.427Z,94800.00
2023-05-05T01:30:00.463Z,94799.00
2023-05-05T01:31:00.467Z,94799.00
2023-05-05T01:32:00.603Z,94802.00
2023-05-05T01:33:00.537Z,94802.00
2023-05-05T01:34:00.493Z,94800.00
2023-05-05T01:35:00.587Z,94800.00
2023-05-05T01:36:00.607Z,94800.00
2023-05-05T01:37:00.617Z,94799.00
2023-05-05T01:38:00.628Z,94800.00
2023-05-05T01:39:00.655Z,94797.00
2023-05-05T01:40:00.640Z,94800.00
2023-05-05T01:41:00.640Z,94799.00
2023-05-05T01:42:00.647Z,94799.00
2023-05-05T01:43:00.660Z,94797.00
2023-05-05T01:44:00.668Z,94795.00
2023-05-05T01:45:00.717Z,94799.00
2023-05-05T01:46:00.782Z,94799.00
2023-05-05T01:47:00.736Z,94797.00
2023-05-05T01:48:00.767Z,94799.00
2023-05-05T01:49:00.774Z,94799.00
2023-05-05T01:50:00.804Z,94800.00
2023-05-05T01:51:00.813Z,94800.00
2023-05-05T01:52:00.817Z,94800.00
2023-05-05T01:53:00.836Z,94802.00
2023-05-05T01:54:00.865Z,94802.00
2023-05-05T01:55:00.919Z,94800.00
2023-05-05T01:56:00.937Z,94802.00
2023-05-05T01:57:00.952Z,94800.00
2023-05-05T01:58:00.952Z,94804.00
2023-05-05T01:59:00.969Z,94806.00
2023-05-05T02:00:00.980Z,94806.00
2023-05-05T02:01:01.019Z,94808.00
2023-05-05T02:02:01.088Z,94808.00
2023-05-05T02:03:01.104Z,94810.00
2023-05-05T02:04:01.028Z,94808.00
2023-05-05T02:05:01.053Z,94810.00
2023-05-05T02:06:01.063Z,94812.00
2023-05-05T02:07:01.084Z,94810.00
2023-05-05T02:08:01.091Z,94810.00
2023-05-05T02:09:01.112Z,94812.00
2023-05-05T02:10:01.122Z,94814.00
2023-05-05T02:11:01.151Z,94816.00
2023-05-05T02:12:01.148Z,94816.00
2023-05-05T02:13:01.180Z,94818.00
2023-05-05T02:14:01.261Z,94816.00
2023-05-05T02:15:01.216Z,94816.00
2023-05-05T02:16:01.272Z,94816.00
2023-05-05T02:17:01.229Z,94818.00
2023-05-05T02:18:01.290Z,94818.00
2023-05-05T02:19:01.267Z,94822.00
2023-05-05T02:20:01.344Z,94822.00
2023-05-05T02:21:01.286Z,94828.00
2023-05-05T02:22:01.314Z,94824.00
2023-05-05T02:23:01.312Z,94828.00
2023-05-05T02:24:01.393Z,94830.00
2023-05-05T02:25:01.391Z,94830.00
2023-05-05T02:26:01.401Z,94826.00
2023-05-05T02:27:01.417Z,94826.00
2023-05-05T02:28:01.441Z,94830.00
2023-05-05T02:29:01.554Z,94830.00
2023-05-05T02:30:01.548Z,94830.00
2023-05-05T02:31:01.614Z,94832.00
2023-05-05T02:32:01.579Z,94832.00
2023-05-05T02:33:01.614Z,94832.00
2023-05-05T02:34:01.622Z,94830.00
2023-05-05T02:35:01.732Z,94830.00
2023-05-05T02:36:01.820Z,94828.00
2023-05-05T02:37:01.822Z,94828.00
2023-05-05T02:38:01.870Z,94826.00
2023-05-05T02:39:01.816Z,94826.00
2023-05-05T02:40:01.918Z,94826.00
2023-05-05T02:41:01.993Z,94826.00
2023-05-05T02:42:01.949Z,94826.00
2023-05-05T02:43:01.996Z,94826.00
2023-05-05T02:44:01.962Z,94828.00
2023-05-05T02:45:01.992Z,94828.00
2023-05-05T02:46:02.054Z,94832.00
2023-05-05T02:47:02.009Z,94830.00
2023-05-05T02:48:02.060Z,94832.00
2023-05-05T02:49:02.045Z,94834.00
2023-05-05T02:50:02.060Z,94832.00
2023-05-05T02:51:02.068Z,94832.00
2023-05-05T02:52:02.068Z,94832.00
2023-05-05T02:53:02.075Z,94832.00
2023-05-05T02:54:02.084Z,94830.00
2023-05-05T02:55:02.090Z,94830.00
2023-05-05T02:56:02.096Z,94828.00
2023-05-05T02:57:02.114Z,94828.00
2023-05-05T02:58:02.133Z,94830.00
2023-05-05T02:59:02.137Z,94830.00
2023-05-05T03:00:02.123Z,94830.00
2023-05-05T03:01:02.140Z,94830.00
2023-05-05T03:02:02.153Z,94830.00
2023-05-05T03:03:02.239Z,94826.00
2023-05-05T03:04:02.167Z,94828.00
2023-05-05T03:05:02.182Z,94828.00
2023-05-05T03:06:02.202Z,94826.00
2023-05-05T03:07:02.226Z,94826.00
2023-05-05T03:08:02.338Z,94826.00
2023-05-05T03:09:02.235Z,94824.00
2023-05-05T03:10:02.228Z,94824.00
2023-05-05T03:11:02.266Z,94826.00
2023-05-05T03:12:02.271Z,94826.00
2023-05-05T03:13:02.376Z,94826.00
2023-05-05T03:14:02.260Z,94826.00
2023-05-05T03:15:02.329Z,94828.00
2023-05-05T03:16:02.369Z,94832.00
2023-05-05T03:17:02.361Z,94830.00
2023-05-05T03:18:02.377Z,94836.00
2023-05-05T03:19:02.347Z,94836.00
2023-05-05T03:20:03.814Z,94838.00
2023-05-05T03:21:02.389Z,94834.00
2023-05-05T03:22:02.377Z,94840.00
2023-05-05T03:23:02.383Z,94838.00
2023-05-05T03:24:02.400Z,94840.00
2023-05-05T03:25:02.422Z,94838.00
2023-05-05T03:26:02.410Z,94838.00
2023-05-05T03:27:02.395Z,94834.00
2023-05-05T03:28:02.440Z,94836.00
2023-05-05T03:29:02.424Z,94836.00
2023-05-05T03:30:02.427Z,94834.00
2023-05-05T03:31:02.429Z,94836.00
2023-05-05T03:32:02.452Z,94834.00
2023-05-05T03:33:02.431Z,94838.00
2023-05-05T03:34:02.426Z,94836.00
2023-05-05T03:35:02.442Z,94836.00
2023-05-05T03:36:02.454Z,94836.00
2023-05-05T03:37:02.438Z,94836.00
2023-05-05T03:38:02.447Z,94836.00
2023-05-05T03:39:02.486Z,94834.00
2023-05-05T03:40:02.473Z,94834.00
2023-05-05T03:41:02.509Z,94836.00
2023-05-05T03:42:02.479Z,94836.00
2023-05-05T03:43:02.526Z,94836.00
2023-05-05T03:44:02.544Z,94838.00
2023-05-05T03:45:02.550Z,94836.00
2023-05-05T03:46:02.564Z,94838.00
2023-05-05T03:47:02.567Z,94836.00
2023-05-05T03:48:02.582Z,94836.00
2023-05-05T03:49:02.572Z,94838.00
2023-05-05T03:50:02.555Z,94838.00
2023-05-05T03:51:02.594Z,94840.00
2023-05-05T03:52:02.614Z,94840.00
2023-05-05T03:53:02.609Z,94842.00
2023-05-05T03:54:02.607Z,94842.00
2023-05-05T03:55:02.601Z,94840.00
2023-05-05T03:56:02.597Z,94840.00
2023-05-05T03:57:02.612Z,94836.00
2023-05-05T03:58:02.623Z,94836.00
2023-05-05T03:59:02.633Z,94834.00
2023-05-05T04:00:02.613Z,94836.00
2023-05-05T04:01:02.616Z,94826.00
2023-05-05T04:02:02.642Z,94824.00
2023-05-05T04:03:02.743Z,94822.00
2023-05-05T04:04:02.734Z,94820.00
2023-05-05T04:05:02.687Z,94818.00
2023-05-05T04:06:02.699Z,94818.00
2023-05-05T04:07:02.707Z,94820.00
2023-05-05T04:08:02.726Z,94822.00
2023-05-05T04:09:02.721Z,94824.00
2023-05-05T04:10:02.763Z,94824.00
2023-05-05T04:11:02.815Z,94824.00
2023-05-05T04:12:02.772Z,94824.00
2023-05-05T04:13:02.820Z,94822.00
2023-05-05T04:14:02.818Z,94822.00
2023-05-05T04:15:02.818Z,94822.00
2023-05-05T04:16:02.823Z,94822.00
2023-05-05T04:17:02.834Z,94824.00
2023-05-05T04:18:02.897Z,94824.00
2023-05-05T04:19:02.809Z,94824.00
2023-05-05T04:20:02.818Z,94824.00
2023-05-05T04:21:02.859Z,94824.00
2023-05-05T04:22:02.848Z,94826.00
2023-05-05T04:23:02.857Z,94826.00
2023-05-05T04:24:02.871Z,94826.00
2023-05-05T04:25:02.906Z,94828.00
2023-05-05T04:26:02.922Z,94830.00
2023-05-05T04:27:02.897Z,94830.00
2023-05-05T04:28:02.927Z,94828.00
2023-05-05T04:29:02.917Z,94830.00
2023-05-05T04:30:02.939Z,94830.00
2023-05-05T04:31:02.957Z,94832.00
2023-05-05T04:32:02.937Z,94832.00
2023-05-05T04:33:02.997Z,94834.00
2023-05-05T04:34:02.983Z,94834.00
2023-05-05T04:35:02.993Z,94832.00
2023-05-05T04:36:02.966Z,94832.00
2023-05-05T04:37:02.985Z,94832.00
2023-05-05T04:38:03.003Z,94832.00
2023-05-05T04:39:03.065Z,94832.00
2023-05-05T04:40:02.995Z,94832.00
2023-05-05T04:41:03.034Z,94838.00
2023-05-05T04:42:03.035Z,94838.00
2023-05-05T04:43:03.036Z,94840.00
2023-05-05T04:44:03.045Z,94840.00
2023-05-05T04:45:03.051Z,94840.00
2023-05-05T04:46:03.049Z,94840.00
2023-05-05T04:47:03.031Z,94842.00
2023-05-05T04:48:03.095Z,94842.00
2023-05-05T04:49:03.060Z,94844.00
2023-05-05T04:50:03.057Z,94846.00
2023-05-05T04:51:03.057Z,94842.00
2023-05-05T04:52:03.088Z,94846.00
2023-05-05T04:53:03.088Z,94838.00
2023-05-05T04:54:03.089Z,94846.00
2023-05-05T04:55:03.103Z,94846.00
2023-05-05T04:56:03.123Z,94846.00
2023-05-05T04:57:03.112Z,94846.00
2023-05-05T04:58:03.116Z,94847.00
2023-05-05T04:59:03.131Z,94849.00
2023-05-05T05:00:03.129Z,94847.00
2023-05-05T05:01:03.135Z,94853.00
2023-05-05T05:02:03.167Z,94855.00
2023-05-05T05:03:03.250Z,94851.00
2023-05-05T05:04:03.274Z,94853.00
2023-05-05T05:05:03.159Z,94857.00
2023-05-05T05:06:03.184Z,94855.00
2023-05-05T05:07:03.187Z,94849.00
2023-05-05T05:08:03.233Z,94849.00
2023-05-05T05:09:03.262Z,94849.00
2023-05-05T05:10:03.300Z,94851.00
2023-05-05T05:11:03.351Z,94849.00
2023-05-05T05:12:03.402Z,94853.00
2023-05-05T05:13:03.522Z,94855.00
2023-05-05T05:14:03.516Z,94855.00
2023-05-05T05:15:03.591Z,94855.00
2023-05-05T05:16:03.697Z,94857.00
2023-05-05T05:17:03.709Z,94859.00
2023-05-05T05:18:03.789Z,94857.00
2023-05-05T05:19:03.811Z,94861.00
2023-05-05T05:20:03.892Z,94869.00
2023-05-05T05:21:03.940Z,94867.00
2023-05-05T05:22:04.037Z,94869.00
2023-05-05T05:23:04.056Z,94873.00
2023-05-05T05:24:04.128Z,94871.00
2023-05-05T05:25:04.194Z,94873.00
2023-05-05T05:26:04.287Z,94875.00
2023-05-05T05:27:04.315Z,94877.00
2023-05-05T05:28:09.528Z,94875.00
2023-05-05T05:29:05.374Z,94867.00
2023-05-05T05:30:04.366Z,94871.00
2023-05-05T05:31:04.354Z,94869.00
2023-05-05T05:32:04.381Z,94867.00
2023-05-05T05:33:04.392Z,94869.00
2023-05-05T05:34:04.788Z,94869.00
2023-05-05T05:35:04.307Z,94871.00
2023-05-05T05:36:04.301Z,94869.00
2023-05-05T05:37:04.290Z,94867.00
2023-05-05T05:38:04.314Z,94867.00
2023-05-05T05:39:04.291Z,94865.00
2023-05-05T05:40:04.288Z,94865.00
2023-05-05T05:41:04.278Z,94869.00
2023-05-05T05:42:04.284Z,94865.00
2023-05-05T05:43:04.320Z,94865.00
2023-05-05T05:44:04.335Z,94865.00
2023-05-05T05:45:04.325Z,94865.00
2023-05-05T05:46:05.389Z,94865.00
2023-05-05T05:47:04.471Z,94865.00
2023-05-05T05:48:04.566Z,94865.00
2023-05-05T05:49:04.471Z,94865.00
2023-05-05T05:50:04.489Z,94867.00
2023-05-05T05:51:04.524Z,94863.00
2023-05-05T05:52:04.560Z,94865.00
2023-05-05T05:53:04.602Z,94865.00
2023-05-05T05:54:04.653Z,94865.00
2023-05-05T05:55:04.699Z,94865.00
2023-05-05T05:56:04.776Z,94861.00
2023-05-05T05:57:04.829Z,94867.00
2023-05-05T05:58:04.876Z,94865.00
2023-05-05T05:59:04.929Z,94867.00
2023-05-05T06:00:04.957Z,94869.00
2023-05-05T06:01:05.019Z,94867.00
2023-05-05T06:02:05.036Z,94869.00
2023-05-05T06:03:05.105Z,94869.00
2023-05-05T06:04:05.355Z,94867.00
2023-05-05T06:05:05.107Z,94869.00
2023-05-05T06:06:05.117Z,94865.00
2023-05-05T06:07:05.137Z,94863.00
2023-05-05T06:08:05.216Z,94869.00
2023-05-05T06:09:05.186Z,94867.00
2023-05-05T06:10:22.862Z,94867.00
2023-05-05T06:11:06.215Z,94865.00
2023-05-05T06:12:05.194Z,94867.00
2023-05-05T06:13:05.230Z,94865.00
2023-05-05T06:14:05.197Z,94865.00
2023-05-05T06:15:05.188Z,94863.00
2023-05-05T06:16:05.257Z,94863.00
2023-05-05T06:17:05.153Z,94865.00
2023-05-05T06:18:05.189Z,94861.00
2023-05-05T06:19:05.310Z,94863.00
2023-05-05T06:20:05.190Z,94863.00
2023-05-05T06:21:05.134Z,94861.00
2023-05-05T06:22:05.138Z,94861.00
2023-05-05T06:23:05.112Z,94857.00
2023-05-05T06:24:05.118Z,94855.00
2023-05-05T06:25:05.105Z,94853.00
2023-05-05T06:26:05.089Z,94853.00
2023-05-05T06:27:05.083Z,94853.00
2023-05-05T06:28:05.078Z,94853.00
2023-05-05T06:29:05.084Z,94853.00
2023-05-05T06:30:05.071Z,94853.00
2023-05-05T06:31:05.105Z,94849.00
2023-05-05T06:32:05.322Z,94847.00
2023-05-05T06:33:05.065Z,94846.00
2023-05-05T06:34:05.026Z,94847.00
2023-05-05T06:35:05.035Z,94849.00
2023-05-05T06:36:05.084Z,94847.00
2023-05-05T06:37:05.122Z,94849.00
2023-05-05T06:38:05.139Z,94849.00
2023-05-05T06:39:05.211Z,94849.00
2023-05-05T06:40:05.206Z,94847.00
2023-05-05T06:41:05.251Z,94847.00
2023-05-05T06:42:05.261Z,94847.00
2023-05-05T06:43:05.305Z,94847.00
2023-05-05T06:44:05.317Z,94844.00
2023-05-05T06:45:05.331Z,94846.00
2023-05-05T06:46:05.358Z,94847.00
2023-05-05T06:47:05.945Z,94842.00
2023-05-05T06:48:05.398Z,94840.00
2023-05-05T06:49:05.348Z,94842.00
2023-05-05T06:50:05.508Z,94840.00
2023-05-05T06:51:05.368Z,94838.00
2023-05-05T06:52:05.378Z,94840.00
2023-05-05T06:53:05.384Z,94838.00
2023-05-05T06:54:05.810Z,94836.00
2023-05-05T06:55:05.415Z,94836.00
2023-05-05T06:56:05.405Z,94834.00
2023-05-05T06:57:05.507Z,94834.00
2023-05-05T06:58:05.413Z,94834.00
2023-05-05T06:59:05.432Z,94834.00
2023-05-05T07:00:05.627Z,94832.00
2023-05-05T07:01:05.473Z,94830.00
2023-05-05T07:02:05.433Z,94830.00
2023-05-05T07:03:05.478Z,94828.00
2023-05-05T07:04:05.496Z,94826.00
2023-05-05T07:05:05.496Z,94826.00
2023-05-05T07:06:05.491Z,94826.00
2023-05-05T07:07:05.526Z,94824.00
2023-05-05T07:08:05.581Z,94824.00
2023-05-05T07:09:05.817Z,94820.00
2023-05-05T07:10:05.724Z,94820.00
2023-05-05T07:11:05.664Z,94826.00
2023-05-05T07:12:05.833Z,94824.00
2023-05-05T07:13:05.821Z,94824.00
2023-05-05T07:14:05.785Z,94822.00
2023-05-05T07:15:15.785Z,94824.00
2023-05-05T07:16:06.853Z,94822.00
2023-05-05T07:17:05.776Z,94820.00
2023-05-05T07:18:05.798Z,94818.00
2023-05-05T07:19:05.760Z,94820.00
2023-05-05T07:20:05.997Z,94816.00
2023-05-05T07:21:05.739Z,94814.00
2023-05-05T07:22:05.743Z,94816.00
2023-05-05T07:23:06.041Z,94814.00
2023-05-05T07:24:05.729Z,94810.00
2023-05-05T07:25:05.731Z,94812.00
2023-05-05T07:26:05.720Z,94810.00
2023-05-05T07:27:05.702Z,94808.00
2023-05-05T07:28:05.703Z,94806.00
2023-05-05T07:29:05.895Z,94806.00
2023-05-05T07:30:11.185Z,94806.00
2023-05-05T07:31:06.688Z,94810.00
2023-05-05T07:32:05.882Z,94804.00
2023-05-05T07:33:05.709Z,94804.00
2023-05-05T07:34:05.655Z,94800.00
2023-05-05T07:35:05.665Z,94804.00
2023-05-05T07:36:05.646Z,94802.00
2023-05-05T07:37:05.856Z,94804.00
2023-05-05T07:38:05.613Z,94802.00
2023-05-05T07:39:05.633Z,94804.00
2023-05-05T07:40:05.859Z,94802.00
2023-05-05T07:41:05.675Z,94804.00
2023-05-05T07:42:05.715Z,94802.00
2023-05-05T07:43:05.764Z,94802.00
2023-05-05T07:44:05.825Z,94797.00
2023-05-05T07:45:06.040Z,94799.00
2023-05-05T07:46:05.989Z,94797.00
2023-05-05T07:47:05.996Z,94795.00
2023-05-05T07:48:06.106Z,94791.00
2023-05-05T07:49:06.331Z,94787.00
2023-05-05T07:50:06.506Z,94789.00
2023-05-05T07:51:06.195Z,94789.00
2023-05-05T07:52:06.228Z,94789.00
2023-05-05T07:53:14.484Z,94785.00
2023-05-05T07:54:07.344Z,94787.00
2023-05-05T07:55:06.267Z,94783.00
2023-05-05T07:56:06.269Z,94785.00
2023-05-05T07:57:06.258Z,94783.00
2023-05-05T07:58:06.258Z,94779.00
2023-05-05T07:59:06.334Z,94777.00
2023-05-05T08:00:06.527Z,94777.00
2023-05-05T08:01:06.377Z,94775.00
2023-05-05T08:02:06.368Z,94773.00
2023-05-05T08:03:07.770Z,94775.00
2023-05-05T08:04:06.276Z,94773.00
2023-05-05T08:05:06.706Z,94771.00
2023-05-05T08:06:06.226Z,94775.00
2023-05-05T08:07:06.219Z,94771.00
2023-05-05T08:08:06.198Z,94773.00
2023-05-05T08:09:06.175Z,94773.00
2023-05-05T08:10:06.170Z,94771.00
2023-05-05T08:11:06.157Z,94767.00
2023-05-05T08:12:06.144Z,94767.00
2023-05-05T08:13:06.241Z,94765.00
2023-05-05T08:14:06.121Z,94765.00
2023-05-05T08:15:06.360Z,94761.00
2023-05-05T08:16:06.139Z,94763.00
2023-05-05T08:17:06.166Z,94759.00
2023-05-05T08:18:06.155Z,94757.00
2023-05-05T08:19:12.079Z,94757.00
2023-05-05T08:20:07.104Z,94757.00
2023-05-05T08:21:06.099Z,94753.00
2023-05-05T08:22:06.077Z,94752.00
2023-05-05T08:23:06.067Z,94750.00
2023-05-05T08:24:06.352Z,94750.00
2023-05-05T08:25:06.157Z,94746.00
2023-05-05T08:26:06.066Z,94744.00
2023-05-05T08:27:06.112Z,94740.00
2023-05-05T08:28:06.164Z,94744.00
2023-05-05T08:29:06.204Z,94740.00
2023-05-05T08:30:06.252Z,94738.00
2023-05-05T08:31:06.313Z,94736.00
2023-05-05T08:32:06.373Z,94734.00
2023-05-05T08:33:06.557Z,94732.00
2023-05-05T08:34:06.460Z,94730.00
2023-05-05T08:35:06.854Z,94730.00
2023-05-05T08:36:06.578Z,94730.00
2023-05-05T08:37:06.632Z,94724.00
2023-05-05T08:38:06.694Z,94726.00
2023-05-05T08:39:06.739Z,94724.00
2023-05-05T08:40:06.803Z,94724.00
2023-05-05T08:41:06.883Z,94722.00
2023-05-05T08:42:06.943Z,94722.00
2023-05-05T08:43:06.975Z,94722.00
2023-05-05T08:44:07.037Z,94720.00
2023-05-05T08:45:07.247Z,94718.00
2023-05-05T08:46:07.166Z,94716.00
2023-05-05T08:47:07.386Z,94714.00
2023-05-05T08:48:07.259Z,94712.00
2023-05-05T08:49:07.332Z,94712.00
2023-05-05T08:50:07.325Z,94712.00
2023-05-05T08:51:07.348Z,94714.00
2023-05-05T08:52:07.378Z,94708.00
2023-05-05T08:53:07.469Z,94706.00
2023-05-05T08:54:07.861Z,94706.00
2023-05-05T08:55:07.722Z,94702.00
2023-05-05T08:56:07.520Z,94702.00
2023-05-05T08:57:07.519Z,94702.00
2023-05-05T08:58:07.576Z,94702.00
2023-05-05T08:59:07.595Z,94702.00
2023-05-05T09:00:07.600Z,94702.00
2023-05-05T09:01:07.699Z,94700.00
2023-05-05T09:02:07.677Z,94700.00
2023-05-05T09:03:07.892Z,94700.00
2023-05-05T09:04:07.742Z,94698.00
2023-05-05T09:05:08.067Z,94697.00
2023-05-05T09:06:07.775Z,94697.00
2023-05-05T09:07:07.799Z,94697.00
2023-05-05T09:08:07.806Z,94691.00
2023-05-05T09:09:07.854Z,94691.00
2023-05-05T09:10:07.872Z,94691.00
2023-05-05T09:11:07.912Z,94693.00
2023-05-05T09:12:07.931Z,94685.00
2023-05-05T09:13:07.970Z,94685.00
2023-05-05T09:14:07.982Z,94685.00
2023-05-05T09:15:08.125Z,94685.00
2023-05-05T09:16:08.026Z,94683.00
2023-05-05T09:17:08.191Z,94683.00
2023-05-05T09:18:08.179Z,94679.00
2023-05-05T09:19:08.100Z,94681.00
2023-05-05T09:20:08.122Z,94681.00
2023-05-05T09:21:08.279Z,94677.00
2023-05-05T09:22:08.171Z,94679.00
2023-05-05T09:23:08.188Z,94675.00
2023-05-05T09:24:09.046Z,94675.00
2023-05-05T09:25:08.466Z,94675.00
2023-05-05T09:26:08.245Z,94675.00
2023-05-05T09:27:08.280Z,94671.00
2023-05-05T09:28:08.295Z,94671.00
2023-05-05T09:29:08.345Z,94669.00
2023-05-05T09:30:08.340Z,94667.00
2023-05-05T09:31:08.395Z,94667.00
2023-05-05T09:32:08.738Z,94665.00
2023-05-05T09:33:08.973Z,94665.00
2023-05-05T09:34:08.423Z,94661.00
2023-05-05T09:35:08.686Z,94659.00
2023-05-05T09:36:08.473Z,94655.00
2023-05-05T09:37:08.553Z,94655.00
2023-05-05T09:38:08.875Z,94650.00
2023-05-05T09:39:08.576Z,94651.00
2023-05-05T09:40:08.594Z,94648.00
2023-05-05T09:41:08.662Z,94644.00
2023-05-05T09:42:08.673Z,94644.00
2023-05-05T09:43:08.709Z,94644.00
2023-05-05T09:44:08.739Z,94640.00
2023-05-05T09:45:08.906Z,94638.00
2023-05-05T09:46:08.881Z,94638.00
2023-05-05T09:47:21.969Z,94638.00
2023-05-05T09:48:09.857Z,94634.00
2023-05-05T09:49:08.805Z,94634.00
2023-05-05T09:50:09.039Z,94630.00
2023-05-05T09:51:08.811Z,94630.00
2023-05-05T09:52:08.817Z,94630.00
2023-05-05T09:53:08.950Z,94628.00
2023-05-05T09:54:08.791Z,94616.00
2023-05-05T09:55:08.770Z,94620.00
2023-05-05T09:56:08.798Z,94614.00
2023-05-05T09:57:08.768Z,94616.00
2023-05-05T09:58:08.795Z,94618.00
2023-05-05T09:59:08.741Z,94614.00
2023-05-05T10:00:09.054Z,94614.00
2023-05-05T10:01:08.767Z,94614.00
2023-05-05T10:02:08.709Z,94612.00
2023-05-05T10:03:08.787Z,94612.00
2023-05-05T10:04:08.699Z,94612.00
2023-05-05T10:05:08.977Z,94612.00
2023-05-05T10:06:08.736Z,94610.00
2023-05-05T10:07:08.747Z,94608.00
2023-05-05T10:08:08.775Z,94608.00
2023-05-05T10:09:08.810Z,94608.00
2023-05-05T10:10:09.035Z,94605.00
2023-05-05T10:11:08.849Z,94606.00
2023-05-05T10:12:08.916Z,94608.00
2023-05-05T10:13:08.935Z,94601.00
2023-05-05T10:14:08.928Z,94603.00
2023-05-05T10:15:08.963Z,94601.00
2023-05-05T10:16:09.077Z,94601.00
2023-05-05T10:17:09.019Z,94599.00
2023-05-05T10:18:09.044Z,94599.00
2023-05-05T10:19:09.069Z,94599.00
2023-05-05T10:20:09.254Z,94599.00
2023-05-05T10:21:09.138Z,94595.00
2023-05-05T10:22:09.161Z,94595.00
2023-05-05T10:23:09.182Z,94595.00
2023-05-05T10:24:09.187Z,94591.00
2023-05-05T10:25:09.293Z,94591.00
2023-05-05T10:26:09.235Z,94593.00
2023-05-05T10:27:10.570Z,94585.00
2023-05-05T10:28:09.231Z,94589.00
2023-05-05T10:29:09.222Z,94587.00
2023-05-05T10:30:09.574Z,94581.00
2023-05-05T10:31:20.334Z,94581.00
2023-05-05T10:32:33.538Z,94577.00
2023-05-05T10:33:30.020Z,94575.00
2023-05-05T10:34:10.413Z,94573.00
2023-05-05T10:35:09.206Z,94573.00
2023-05-05T10:36:09.188Z,94571.00
2023-05-05T10:37:09.189Z,94565.00
2023-05-05T10:38:09.175Z,94567.00
2023-05-05T10:39:09.178Z,94565.00
2023-05-05T10:40:09.345Z,94561.00
2023-05-05T10:41:09.148Z,94557.00
2023-05-05T10:42:09.131Z,94557.00
2023-05-05T10:43:09.133Z,94557.00
2023-05-05T10:44:09.158Z,94563.00
2023-05-05T10:45:09.169Z,94563.00
2023-05-05T10:46:09.133Z,94559.00
2023-05-05T10:47:09.105Z,94559.00
2023-05-05T10:48:09.255Z,94555.00
2023-05-05T10:49:11.118Z,94553.00
2023-05-05T10:50:09.376Z,94555.00
2023-05-05T10:51:09.078Z,94553.00
2023-05-05T10:52:09.071Z,94551.00
2023-05-05T10:53:09.071Z,94550.00
2023-05-05T10:54:09.078Z,94546.00
2023-05-05T10:55:09.047Z,94548.00
2023-05-05T10:56:09.028Z,94540.00
2023-05-05T10:57:09.098Z,94540.00
2023-05-05T10:58:09.046Z,94538.00
2023-05-05T10:59:09.026Z,94536.00
2023-05-05T11:00:09.268Z,94532.00
2023-05-05T11:01:09.038Z,94536.00
2023-05-05T11:02:09.000Z,94532.00
2023-05-05T11:03:09.051Z,94528.00
2023-05-05T11:04:09.091Z,94526.00
2023-05-05T11:05:09.005Z,94524.00
2023-05-05T11:06:08.972Z,94514.00
2023-05-05T11:07:11.764Z,94514.00
2023-05-05T11:08:09.938Z,94516.00
2023-05-05T11:09:08.951Z,94516.00
2023-05-05T11:10:09.564Z,94518.00
2023-05-05T11:11:08.930Z,94514.00
2023-05-05T11:12:08.929Z,94514.00
2023-05-05T11:13:09.037Z,94510.00
2023-05-05T11:14:08.913Z,94501.00
2023-05-05T11:15:08.916Z,94497.00
2023-05-05T11:16:08.915Z,94497.00
2023-05-05T11:17:08.897Z,94495.00
2023-05-05T11:18:09.018Z,94491.00
2023-05-05T11:19:08.854Z,94489.00
2023-05-05T11:20:09.323Z,94485.00
2023-05-05T11:21:08.862Z,94483.00
2023-05-05T11:22:08.860Z,94481.00
2023-05-05T11:23:08.850Z,94479.00
2023-05-05T11:24:08.824Z,94479.00
2023-05-05T11:25:08.828Z,94475.00
2023-05-05T11:26:08.805Z,94477.00
2023-05-05T11:27:08.835Z,94473.00
2023-05-05T11:28:08.896Z,94471.00
2023-05-05T11:29:08.941Z,94473.00
2023-05-05T11:30:09.052Z,94473.00
2023-05-05T11:31:08.967Z,94473.00
2023-05-05T11:32:08.968Z,94471.00
2023-05-05T11:33:09.007Z,94469.00
2023-05-05T11:34:09.016Z,94469.00
2023-05-05T11:35:09.052Z,94465.00
2023-05-05T11:36:09.092Z,94467.00
2023-05-05T11:37:09.258Z,94459.00
2023-05-05T11:38:09.171Z,94459.00
2023-05-05T11:39:09.225Z,94457.00
2023-05-05T11:40:09.394Z,94456.00
2023-05-05T11:41:09.234Z,94452.00
2023-05-05T11:42:10.972Z,94450.00
2023-05-05T11:43:09.301Z,94450.00
2023-05-05T11:44:09.330Z,94452.00